Terminal Aerodrome Forecast
Issued by NWS

Home | Current Version | Previous Version | Graphics & Text | Print | Product List | Glossary On
Versions: 1 2 3 4 5 6 7 8 9 10 11 12 13
000
FTUS45 KGGW 220500
TAFSDY
TAF
KSDY 220527Z 2206/2306 VRB05KT P6SM BKN120
     FM221400 14012KT P6SM FEW150 SCT250
     FM221700 15018G25KT P6SM SCT200 BKN250
     FM222200 14023G30KT P6SM SCT150 BKN250
     FM230300 12015G25KT P6SM VCTS SCT090CB BKN120
      AMD LTD TO CLD VIS AND WIND=

USA.gov is the U.S. government's official web portal to all federal, state and local government web resources and services.